83NE weather

Abbott Airport
Long Pine, Nebraska, United States

Public forecast

Using degrees Fahrenheit for public forecast. Weather courtesy of forecast.io.

Closest aviation weather report (METAR) to Abbott Airport

Closest report is Ainsworth Regional Airport, 18.5 nm (34.3 km) NW. Retrieved 2019/10/17 16:35 UTC (0 seconds ago):

KANW 171635Z AUTO 15011KT 10SM CLR 20/02 A2978 RMK AO2 T01950017

Closest aviation forecast (TAF) to Abbott Airport

Closest forecast is Miller Field, 47.4 nm (87.8 km) NW. Retrieved 2019/10/17 12:24 UTC (4 hours ago):

TAF KVTN 171122Z 1712/1812 VRB04KT P6SM SCT250 FM171700 16012KT P6SM SCT250 FM171900 17015G23KT P6SM SCT250 FM180000 16013KT P6SM SCT250 FM180700 19009KT P6SM SCT250